Time;durP1;ratioP1;P1;durP2;ratioP2;P2;SDS_P1;SDS_P2;PMS_P1;PMS_P2;Temp;Humidity;BMP_temperature;BMP_pressure;BME280_temperature;BME280_humidity;BME280_pressure;Samples;Min_cycle;Max_cycle;Signal;HPM_P1;HPM_P2
2023/07/01 00:00:40;;;;;;;19.83;17.87;;;;;;;16.56;100.00;96466.00;4998564;28;20224;-67
2023/07/01 00:03:08;;;;;;;18.70;17.00;;;;;;;16.56;100.00;96466.00;4998062;28;20346;-66
2023/07/01 00:05:36;;;;;;;19.90;18.07;;;;;;;16.55;100.00;96472.41;4992819;28;20387;-66
2023/07/01 00:08:04;;;;;;;19.43;17.47;;;;;;;16.59;100.00;96468.22;4993743;28;20201;-67
2023/07/01 00:10:32;;;;;;;20.20;18.27;;;;;;;16.58;100.00;96463.91;4993075;28;20237;-66
2023/07/01 00:12:59;;;;;;;19.90;18.03;;;;;;;16.57;100.00;96464.97;4993346;28;20204;-67
2023/07/01 00:15:28;;;;;;;19.33;17.57;;;;;;;16.56;100.00;96466.00;4992880;28;20229;-67
2023/07/01 00:17:56;;;;;;;18.83;17.17;;;;;;;16.53;100.00;96460.34;4999084;28;20307;-67
2023/07/01 00:20:26;;;;;;;19.80;18.00;;;;;;;16.52;100.00;96467.56;4998974;28;20405;-66
2023/07/01 00:22:54;;;;;;;19.10;17.30;;;;;;;16.44;100.00;96467.94;4997175;28;20288;-66
2023/07/01 00:25:23;;;;;;;18.33;16.70;;;;;;;16.40;100.00;96464.91;4989954;28;20204;-66
2023/07/01 00:27:50;;;;;;;19.27;17.50;;;;;;;16.30;100.00;96468.25;4992742;28;21300;-67
2023/07/01 00:30:18;;;;;;;18.07;16.37;;;;;;;16.23;100.00;96466.75;4997419;28;20221;-68
2023/07/01 00:32:47;;;;;;;20.60;18.57;;;;;;;16.21;100.00;96466.97;4997358;28;20216;-66
2023/07/01 00:35:15;;;;;;;19.90;18.20;;;;;;;16.24;100.00;96463.81;4994133;28;20248;-66
2023/07/01 00:37:42;;;;;;;20.90;18.53;;;;;;;16.21;100.00;96461.63;4991365;28;20224;-66
2023/07/01 00:40:11;;;;;;;20.37;18.43;;;;;;;16.16;100.00;96459.69;4994771;28;20233;-66
2023/07/01 00:42:39;;;;;;;19.77;17.80;;;;;;;16.15;100.00;96455.38;4993711;28;20375;-67
2023/07/01 00:45:08;;;;;;;18.07;16.47;;;;;;;16.13;100.00;96459.34;4994702;28;20213;-66
2023/07/01 00:47:36;;;;;;;19.73;17.83;;;;;;;16.03;100.00;96451.91;4996761;28;20755;-64
2023/07/01 00:50:06;;;;;;;20.07;18.27;;;;;;;16.01;100.00;96457.50;4996360;28;20229;-66
2023/07/01 00:52:34;;;;;;;20.60;18.70;;;;;;;15.93;100.00;96462.41;4990906;28;20229;-64
2023/07/01 00:55:01;;;;;;;19.10;17.27;;;;;;;15.90;100.00;96463.69;4990657;28;20233;-67
2023/07/01 00:57:29;;;;;;;21.87;19.87;;;;;;;15.82;100.00;96464.84;4993096;28;20275;-66
2023/07/01 00:59:57;;;;;;;22.97;20.67;;;;;;;15.70;100.00;96464.03;4995508;28;20229;-66
2023/07/01 01:02:28;;;;;;;20.03;18.03;;;;;;;15.73;100.00;96463.59;4996470;28;20240;-65
2023/07/01 01:05:02;;;;;;;20.53;18.43;;;;;;;15.69;100.00;96457.06;4988632;28;20839;-66
2023/07/01 01:07:36;;;;;;;20.10;18.30;;;;;;;15.67;100.00;96464.50;4996757;28;20213;-66
2023/07/01 01:10:10;;;;;;;19.60;17.67;;;;;;;15.61;100.00;96456.38;4990442;28;20231;-65
2023/07/01 01:12:40;;;;;;;19.97;18.20;;;;;;;15.49;100.00;96453.72;4991020;28;20295;-67
2023/07/01 01:15:09;;;;;;;19.13;17.53;;;;;;;15.32;100.00;96437.59;4993358;28;20314;-65
2023/07/01 01:17:39;;;;;;;20.50;18.40;;;;;;;15.26;100.00;96448.41;4994339;28;20210;-67
2023/07/01 01:20:13;;;;;;;18.63;16.80;;;;;;;15.11;100.00;96447.00;4995065;28;20475;-66
2023/07/01 01:22:46;;;;;;;20.13;18.23;;;;;;;15.06;100.00;96446.88;4995164;28;20209;-67
2023/07/01 01:25:27;;;;;;;20.03;17.80;;;;;;;14.97;100.00;96443.75;4993478;28;20271;-66
2023/07/01 01:27:57;;;;;;;19.57;17.30;;;;;;;14.85;100.00;96442.91;4988006;28;20287;-67
2023/07/01 01:30:30;;;;;;;19.20;17.27;;;;;;;14.83;100.00;96447.66;5000027;28;20221;-66
2023/07/01 01:32:58;;;;;;;19.03;17.13;;;;;;;14.74;100.00;96450.66;4995324;28;20297;-67
2023/07/01 01:35:26;;;;;;;19.33;17.57;;;;;;;14.68;100.00;96448.88;4993943;28;20216;-67
2023/07/01 01:37:58;;;;;;;19.30;17.40;;;;;;;14.64;100.00;96452.22;4993133;28;20311;-67
2023/07/01 01:40:29;;;;;;;18.07;16.23;;;;;;;14.58;100.00;96453.94;4995780;28;20225;-66
2023/07/01 01:43:04;;;;;;;18.77;16.80;;;;;;;14.51;100.00;96455.91;4989255;28;20224;-66
2023/07/01 01:45:31;;;;;;;18.57;16.93;;;;;;;14.45;100.00;96454.97;4997821;28;20240;-66
2023/07/01 01:47:59;;;;;;;18.83;17.13;;;;;;;14.45;100.00;96454.97;4989211;28;20902;-67
2023/07/01 01:50:27;;;;;;;20.67;18.10;;;;;;;14.42;100.00;96461.56;4990866;28;20221;-66
2023/07/01 01:52:56;;;;;;;19.07;17.17;;;;;;;14.40;100.00;96452.97;4993447;28;20225;-67
2023/07/01 01:55:24;;;;;;;19.43;17.43;;;;;;;14.38;100.00;96460.38;4995108;28;20302;-66
2023/07/01 01:57:52;;;;;;;20.40;18.20;;;;;;;14.48;100.00;96459.84;4988473;28;20205;-66
2023/07/01 02:00:22;;;;;;;20.70;18.60;;;;;;;14.52;100.00;96462.84;4991048;28;20716;-65
2023/07/01 02:02:50;;;;;;;20.87;18.67;;;;;;;14.60;100.00;96465.22;4991162;28;20201;-66
2023/07/01 02:05:17;;;;;;;23.30;19.80;;;;;;;14.61;100.00;96453.50;4993170;28;20239;-67
2023/07/01 02:07:45;;;;;;;22.33;20.00;;;;;;;14.70;100.00;96457.50;4996075;28;20209;-64
2023/07/01 02:10:13;;;;;;;24.50;21.17;;;;;;;14.80;100.00;96472.13;4988323;28;20263;-67
2023/07/01 02:12:41;;;;;;;23.30;20.40;;;;;;;14.83;100.00;96461.81;4988611;28;20208;-67
2023/07/01 02:15:09;;;;;;;23.87;21.37;;;;;;;14.90;100.00;96451.03;4994634;28;20348;-67
2023/07/01 02:17:38;;;;;;;24.73;21.73;;;;;;;14.96;100.00;96451.97;4996697;28;20267;-65
2023/07/01 02:20:09;;;;;;;22.37;20.17;;;;;;;14.94;100.00;96449.53;4991051;28;20588;-67
2023/07/01 02:22:37;;;;;;;23.43;20.93;;;;;;;14.98;100.00;96455.22;4991244;28;20204;-65
2023/07/01 02:25:06;;;;;;;22.27;20.07;;;;;;;15.05;100.00;96453.25;4992054;28;20208;-67
2023/07/01 02:27:34;;;;;;;22.03;19.80;;;;;;;15.00;100.00;96456.63;4985766;28;20283;-66
2023/07/01 02:30:02;;;;;;;22.07;19.70;;;;;;;15.05;100.00;96447.94;4992979;28;20295;-67
2023/07/01 02:32:30;;;;;;;22.40;20.10;;;;;;;15.08;100.00;96454.66;4997223;28;20209;-65
2023/07/01 02:34:59;;;;;;;23.17;20.70;;;;;;;15.13;100.00;96452.91;4983202;28;20202;-66
2023/07/01 02:37:27;;;;;;;23.50;19.97;;;;;;;15.13;100.00;96454.78;4994494;28;20274;-65
2023/07/01 02:39:54;;;;;;;22.77;20.03;;;;;;;15.14;100.00;96451.06;4990084;28;20813;-66
2023/07/01 02:42:22;;;;;;;24.57;18.97;;;;;;;15.13;100.00;96447.56;4987533;28;20245;-65
2023/07/01 02:44:50;;;;;;;23.63;20.43;;;;;;;15.04;100.00;96452.47;4987296;28;20324;-65
2023/07/01 02:47:19;;;;;;;21.77;18.67;;;;;;;15.00;100.00;96448.63;4992922;28;20291;-65
2023/07/01 02:49:48;;;;;;;22.47;20.17;;;;;;;14.97;100.00;96448.28;4985621;28;20287;-67
2023/07/01 02:52:18;;;;;;;21.40;18.87;;;;;;;14.87;100.00;96448.81;4979336;28;20298;-66
2023/07/01 02:54:45;;;;;;;21.40;19.17;;;;;;;14.79;100.00;96444.66;4991662;28;20290;-66
2023/07/01 02:57:13;;;;;;;19.17;17.20;;;;;;;14.74;100.00;96448.00;4990899;28;20220;-67
2023/07/01 02:59:40;;;;;;;20.73;18.47;;;;;;;14.72;100.00;96449.25;4995947;28;20274;-67
2023/07/01 03:02:08;;;;;;;25.53;18.97;;;;;;;14.71;100.00;96447.63;4989460;28;20237;-65
2023/07/01 03:04:36;;;;;;;20.90;18.77;;;;;;;14.75;100.00;96451.47;4992139;28;20304;-65
2023/07/01 03:07:04;;;;;;;22.00;19.70;;;;;;;14.75;100.00;96448.81;4992445;28;20205;-65
2023/07/01 03:09:33;;;;;;;21.47;19.37;;;;;;;14.74;100.00;96453.34;4989687;28;20908;-66
2023/07/01 03:12:01;;;;;;;21.37;19.10;;;;;;;14.79;100.00;96455.31;4985791;28;20208;-67
2023/07/01 03:14:28;;;;;;;21.97;19.60;;;;;;;14.79;100.00;96450.00;4990916;28;20891;-66
2023/07/01 03:16:56;;;;;;;22.30;18.33;;;;;;;14.83;100.00;96450.34;4992859;28;20267;-65
2023/07/01 03:19:24;;;;;;;20.93;18.60;;;;;;;14.80;100.00;96456.13;4991107;28;20284;-67
2023/07/01 03:21:51;;;;;;;19.97;18.07;;;;;;;14.83;100.00;96461.00;4992851;28;20221;-64
2023/07/01 03:24:19;;;;;;;21.57;17.37;;;;;;;14.85;100.00;96442.91;4993804;28;20600;-65
2023/07/01 03:26:48;;;;;;;18.60;16.67;;;;;;;14.86;100.00;96450.69;4984636;28;21029;-67
2023/07/01 03:29:16;;;;;;;17.17;15.47;;;;;;;14.86;100.00;96448.03;4990593;28;20228;-68
2023/07/01 03:31:44;;;;;;;19.37;16.33;;;;;;;14.86;100.00;96445.38;4991334;28;20224;-66
2023/07/01 03:34:11;;;;;;;16.73;15.00;;;;;;;14.91;100.00;96450.00;4991198;28;20209;-65
2023/07/01 03:36:39;;;;;;;16.27;14.57;;;;;;;14.87;100.00;96446.16;4996156;28;20213;-66
2023/07/01 03:39:07;;;;;;;17.27;15.47;;;;;;;14.86;100.00;96453.38;4991427;28;20253;-65
2023/07/01 03:41:35;;;;;;;16.17;14.13;;;;;;;14.87;100.00;96448.81;4989449;28;20244;-66
2023/07/01 03:44:04;;;;;;;16.50;14.90;;;;;;;14.83;100.00;96453.00;4993261;28;20231;-65
2023/07/01 03:46:32;;;;;;;15.33;13.73;;;;;;;14.76;100.00;96437.09;4997496;28;20267;-66
2023/07/01 03:48:59;;;;;;;14.87;13.57;;;;;;;14.82;100.00;96436.19;4992140;28;20197;-67
2023/07/01 03:51:28;;;;;;;15.37;13.90;;;;;;;14.93;100.00;96439.09;4986503;28;20244;-65
2023/07/01 03:53:55;;;;;;;16.30;14.60;;;;;;;15.04;100.00;96435.63;4995590;28;20239;-66
2023/07/01 03:56:23;;;;;;;17.70;16.00;;;;;;;15.14;100.00;96435.84;4989371;28;20216;-67
2023/07/01 03:58:51;;;;;;;16.73;15.13;;;;;;;15.22;100.00;96437.38;4992880;28;20208;-67
2023/07/01 04:01:22;;;;;;;18.20;16.37;;;;;;;15.28;100.00;96427.63;4992978;28;20744;-68
2023/07/01 04:03:53;;;;;;;17.10;15.40;;;;;;;15.35;100.00;96431.00;4992018;28;20292;-67
2023/07/01 04:06:21;;;;;;;17.10;15.40;;;;;;;15.42;100.00;96430.88;4987832;28;20204;-66
2023/07/01 04:08:54;;;;;;;17.13;15.30;;;;;;;15.47;100.00;96434.47;4995663;28;20624;-67
2023/07/01 04:11:22;;;;;;;17.63;15.80;;;;;;;15.45;100.00;96425.88;4983484;28;20241;-65
2023/07/01 04:13:50;;;;;;;16.73;15.13;;;;;;;15.51;100.00;96421.47;4985113;28;20692;-64
2023/07/01 04:16:19;;;;;;;17.17;15.47;;;;;;;15.61;100.00;96429.69;4998326;28;20203;-65
2023/07/01 04:18:47;;;;;;;14.33;12.93;;;;;;;15.59;100.00;96431.78;4997511;28;20212;-65
2023/07/01 04:21:15;;;;;;;14.90;13.33;;;;;;;15.54;100.00;96428.22;4986195;28;20324;-65
2023/07/01 04:23:42;;;;;;;15.40;13.97;;;;;;;15.56;100.00;96420.78;4993390;28;20716;-66
2023/07/01 04:26:10;;;;;;;18.70;15.80;;;;;;;15.59;100.00;96431.78;4987554;28;20213;-66
2023/07/01 04:28:37;;;;;;;17.63;15.83;;;;;;;15.67;100.00;96430.63;4994250;28;20284;-65
2023/07/01 04:31:05;;;;;;;16.67;15.00;;;;;;;15.68;100.00;96431.41;4993221;28;20238;-66
2023/07/01 04:33:34;;;;;;;17.13;15.53;;;;;;;15.77;100.00;96428.16;4993102;28;20307;-66
2023/07/01 04:36:02;;;;;;;14.83;13.43;;;;;;;15.79;100.00;96430.59;4998542;28;20229;-67
2023/07/01 04:38:29;;;;;;;15.50;13.97;;;;;;;15.72;100.00;96429.91;4997611;28;20213;-66
2023/07/01 04:40:57;;;;;;;15.67;14.00;;;;;;;15.61;100.00;96424.34;4987532;28;20256;-65
2023/07/01 04:43:25;;;;;;;14.73;13.33;;;;;;;15.76;100.00;96415.06;4995219;28;20267;-67
2023/07/01 04:45:52;;;;;;;13.63;12.23;;;;;;;15.72;100.00;96413.88;5000250;28;20231;-64
2023/07/01 04:48:20;;;;;;;13.00;11.70;;;;;;;15.75;100.00;96427.56;4997576;28;20641;-66
2023/07/01 04:50:49;;;;;;;12.67;11.50;;;;;;;15.76;100.00;96421.19;4988703;28;20228;-67
2023/07/01 04:53:16;;;;;;;12.97;11.83;;;;;;;15.85;100.00;96426.97;4990378;28;20301;-66
2023/07/01 04:55:44;;;;;;;11.53;10.50;;;;;;;15.94;100.00;96423.97;4989830;28;20922;-67
2023/07/01 04:58:12;;;;;;;12.77;11.57;;;;;;;16.08;100.00;96421.81;4992615;28;20300;-66
2023/07/01 05:00:39;;;;;;;11.77;10.67;;;;;;;16.08;100.00;96421.81;4998116;28;20687;-67
2023/07/01 05:03:07;;;;;;;11.67;10.57;;;;;;;16.11;100.00;96416.84;4997542;28;20205;-66
2023/07/01 05:05:35;;;;;;;12.67;11.37;;;;;;;16.16;100.00;96414.25;4998931;28;20219;-67
2023/07/01 05:08:05;;;;;;;13.50;12.13;;;;;;;16.29;100.00;96418.50;4990837;28;20243;-67
2023/07/01 05:10:32;;;;;;;13.50;12.30;;;;;;;16.47;100.00;96414.00;4992653;28;20312;-67
2023/07/01 05:13:00;;;;;;;14.17;12.70;;;;;;;16.50;100.00;96418.84;4987521;28;20225;-67
2023/07/01 05:15:27;;;;;;;12.13;11.13;;;;;;;16.39;100.00;96420.53;4997168;28;20298;-68
2023/07/01 05:17:55;;;;;;;15.40;13.80;;;;;;;16.46;100.00;96418.50;4995741;28;20212;-66
2023/07/01 05:20:23;;;;;;;13.60;12.37;;;;;;;16.75;100.00;96425.69;4994851;28;20248;-66
2023/07/01 05:22:50;;;;;;;13.93;12.73;;;;;;;17.00;100.00;96419.16;4990727;28;20275;-67
2023/07/01 05:25:20;;;;;;;13.07;11.87;;;;;;;17.17;100.00;96425.31;4990681;28;20201;-67
2023/07/01 05:27:47;;;;;;;12.67;11.60;;;;;;;17.32;100.00;96416.69;4990846;28;20641;-66
2023/07/01 05:30:15;;;;;;;13.70;12.13;;;;;;;17.02;100.00;96417.88;4991872;28;20689;-66
2023/07/01 05:32:42;;;;;;;13.13;12.03;;;;;;;17.16;100.00;96417.50;4991181;28;20839;-67
2023/07/01 05:35:10;;;;;;;14.40;12.90;;;;;;;17.24;100.00;96417.13;4996240;28;20208;-65
2023/07/01 05:37:38;;;;;;;14.17;12.33;;;;;;;17.02;100.00;96420.53;4996464;28;20264;-66
2023/07/01 05:40:07;;;;;;;13.13;12.03;;;;;;;17.18;100.00;96428.78;4988921;28;20236;-67
2023/07/01 05:42:35;;;;;;;12.43;11.33;;;;;;;17.40;100.00;96423.47;4987108;28;20292;-67
2023/07/01 05:45:04;;;;;;;12.13;10.47;;;;;;;17.44;100.00;96430.00;4987853;28;20208;-69
2023/07/01 05:47:32;;;;;;;12.33;11.10;;;;;;;17.74;100.00;96430.63;4997561;28;20208;-68
2023/07/01 05:49:59;;;;;;;10.43;9.60;;;;;;;17.78;100.00;96426.41;4994526;28;20225;-67
2023/07/01 05:52:27;;;;;;;10.37;9.30;;;;;;;17.71;100.00;96423.09;4995283;28;20220;-68
2023/07/01 05:54:55;;;;;;;10.93;9.90;;;;;;;17.71;100.00;96429.25;4984532;28;20209;-67
2023/07/01 05:57:22;;;;;;;10.07;9.17;;;;;;;17.68;100.00;96424.41;4989396;28;20803;-69
2023/07/01 05:59:51;;;;;;;9.63;8.67;;;;;;;17.32;100.00;96414.03;4994685;28;20696;-68
2023/07/01 06:02:19;;;;;;;10.20;9.30;;;;;;;17.16;100.00;96429.06;4996772;28;20229;-68
2023/07/01 06:04:47;;;;;;;8.23;7.43;;;;;;;17.38;100.00;96422.91;4996122;28;20776;-68
2023/07/01 06:07:14;;;;;;;9.57;8.67;;;;;;;17.57;100.00;96436.03;4991425;28;20220;-68
2023/07/01 06:09:47;;;;;;;9.00;8.10;;;;;;;17.56;100.00;96424.50;4994862;28;20672;-67
2023/07/01 06:12:15;;;;;;;8.10;7.40;;;;;;;17.93;100.00;96429.25;4992013;28;20661;-69
2023/07/01 06:14:42;;;;;;;8.40;7.70;;;;;;;18.28;100.00;96431.81;4992377;28;20318;-68
2023/07/01 06:17:11;;;;;;;7.40;6.80;;;;;;;18.41;100.00;96428.75;4994925;28;20294;-68
2023/07/01 06:19:39;;;;;;;9.07;8.17;;;;;;;17.92;100.00;96442.91;4996152;28;20224;-68
2023/07/01 06:22:07;;;;;;;8.83;7.43;;;;;;;18.00;100.00;96436.31;4986723;28;20312;-68
2023/07/01 06:24:34;;;;;;;8.37;7.67;;;;;;;18.37;100.00;96435.66;4993445;28;20700;-68
2023/07/01 06:27:03;;;;;;;10.00;9.20;;;;;;;18.74;100.00;96440.31;4991908;28;20704;-67
2023/07/01 06:29:31;;;;;;;9.83;8.93;;;;;;;18.75;100.00;96431.22;4995031;28;20201;-67
2023/07/01 06:31:58;;;;;;;8.43;7.73;;;;;;;18.85;100.00;96432.38;4996928;28;20205;-67
2023/07/01 06:34:27;;;;;;;7.43;6.83;;;;;;;18.98;100.00;96425.78;4989936;28;20358;-68
2023/07/01 06:36:55;;;;;;;8.20;7.40;;;;;;;18.75;100.00;96423.16;4989177;28;20252;-67
2023/07/01 06:39:23;;;;;;;8.70;7.90;;;;;;;18.92;100.00;96428.38;4995081;28;20750;-68
2023/07/01 06:41:50;;;;;;;8.07;7.27;;;;;;;18.74;100.00;96428.78;4992929;28;20859;-67
2023/07/01 06:44:18;;;;;;;8.13;7.23;;;;;;;18.79;100.00;96429.63;4997062;28;20283;-69
2023/07/01 06:46:46;;;;;;;7.13;6.53;;;;;;;19.03;100.00;96423.94;4998535;28;20263;-67
2023/07/01 06:49:14;;;;;;;8.17;7.57;;;;;;;18.96;100.00;96426.00;4990783;28;20754;-67
2023/07/01 06:51:43;;;;;;;7.47;6.77;;;;;;;18.75;100.00;96433.91;4994491;28;20237;-68
2023/07/01 06:54:11;;;;;;;8.77;7.00;;;;;;;19.12;100.00;96442.25;4995460;28;20237;-68
2023/07/01 06:56:38;;;;;;;7.37;6.77;;;;;;;19.42;100.00;96440.84;4990299;28;20211;-69
2023/07/01 06:59:06;;;;;;;6.70;6.10;;;;;;;19.55;100.00;96443.09;4994668;28;20226;-68
2023/07/01 07:01:34;;;;;;;7.53;6.93;;;;;;;19.80;100.00;96428.97;4992881;28;20226;-68
2023/07/01 07:04:01;;;;;;;6.80;6.23;;;;;;;19.85;100.00;96430.84;4997009;28;20553;-68
2023/07/01 07:06:29;;;;;;;7.17;6.57;;;;;;;19.40;100.00;96434.91;4988463;28;20263;-68
2023/07/01 07:08:58;;;;;;;6.43;5.93;;;;;;;19.68;100.00;96422.97;4993314;28;20209;-68
2023/07/01 07:11:26;;;;;;;6.87;6.17;;;;;;;19.30;100.00;96425.75;4986785;28;20312;-69
2023/07/01 07:13:53;;;;;;;6.40;5.83;;;;;;;19.35;100.00;96422.28;4996565;28;20239;-68
2023/07/01 07:16:21;;;;;;;6.70;6.13;;;;;;;19.04;100.00;96419.38;4994130;28;20209;-68
2023/07/01 07:18:52;;;;;;;6.80;6.23;;;;;;;18.59;100.00;96424.06;4995401;28;20288;-68
2023/07/01 07:21:20;;;;;;;6.40;5.70;;;;;;;18.55;100.00;96422.97;4987706;28;20316;-67
2023/07/01 07:23:47;;;;;;;6.90;6.20;;;;;;;18.74;100.00;96420.72;4994128;28;20209;-67
2023/07/01 07:26:16;;;;;;;5.93;5.53;;;;;;;18.64;100.00;96416.06;4990577;28;20325;-68
2023/07/01 07:28:44;;;;;;;5.50;5.10;;;;;;;18.77;100.00;96415.66;4992730;28;20225;-68
2023/07/01 07:31:11;;;;;;;5.93;5.33;;;;;;;18.93;100.00;96421.94;4995716;28;20233;-68
2023/07/01 07:33:39;;;;;;;5.37;4.90;;;;;;;19.12;100.00;96412.72;4996697;28;20589;-68
2023/07/01 07:36:07;;;;;;;5.50;5.10;;;;;;;19.21;100.00;96413.88;4985391;28;20205;-68
2023/07/01 07:38:34;;;;;;;6.40;5.90;;;;;;;19.36;100.00;96413.97;4989843;28;20748;-67
2023/07/01 07:41:03;;;;;;;5.73;5.23;;;;;;;19.45;100.00;96413.47;4989256;28;20263;-68
2023/07/01 07:43:31;;;;;;;5.40;5.00;;;;;;;19.78;100.00;96406.94;4983503;28;20230;-67
2023/07/01 07:45:59;;;;;;;5.63;5.23;;;;;;;20.10;100.00;96414.06;4996460;28;20196;-65
2023/07/01 07:48:27;;;;;;;5.13;4.73;;;;;;;20.28;100.00;96414.63;4995608;28;20641;-65
2023/07/01 07:50:55;;;;;;;4.93;4.63;;;;;;;20.38;100.00;96414.66;5001197;28;20221;-66
2023/07/01 07:53:22;;;;;;;5.23;4.83;;;;;;;20.21;100.00;96406.03;4995256;28;20201;-66
2023/07/01 07:55:50;;;;;;;6.10;5.53;;;;;;;19.74;100.00;96400.47;4992635;28;20292;-66
2023/07/01 07:58:17;;;;;;;5.40;4.90;;;;;;;19.69;100.00;96399.63;4990600;28;20300;-65
2023/07/01 08:00:46;;;;;;;4.40;4.03;;;;;;;19.63;100.00;96404.16;4998099;28;20279;-66
2023/07/01 08:03:15;;;;;;;5.40;5.00;;;;;;;19.69;100.00;96397.72;4995999;28;20802;-66
2023/07/01 08:05:42;;;;;;;4.67;4.37;;;;;;;20.19;100.00;96395.50;4996854;28;20236;-65
2023/07/01 08:08:11;;;;;;;5.10;4.67;;;;;;;20.41;100.00;96397.19;4991224;28;20201;-65
2023/07/01 08:10:43;;;;;;;7.10;5.03;;;;;;;20.65;100.00;96383.22;4995128;28;20233;-65
2023/07/01 08:13:12;;;;;;;5.77;5.07;;;;;;;20.43;100.00;96389.66;4993934;28;20251;-65
2023/07/01 08:15:40;;;;;;;5.50;4.40;;;;;;;20.36;100.00;96389.09;4998833;28;20213;-66
2023/07/01 08:18:09;;;;;;;5.33;4.83;;;;;;;19.94;100.00;96393.56;4995809;28;21039;-65
2023/07/01 08:20:38;;;;;;;4.70;3.77;;;;;;;19.80;100.00;96385.16;4994397;28;20836;-66
2023/07/01 08:23:05;;;;;;;4.87;4.30;;;;;;;19.45;100.00;96381.22;4996829;28;20224;-66
2023/07/01 08:25:33;;;;;;;4.37;3.97;;;;;;;19.38;100.00;96378.78;4994731;28;20212;-66
2023/07/01 08:28:01;;;;;;;4.87;4.40;;;;;;;19.53;100.00;96378.84;4991120;28;20631;-66
2023/07/01 08:30:28;;;;;;;4.70;4.40;;;;;;;19.66;100.00;96374.06;5000516;28;20692;-66
2023/07/01 08:32:56;;;;;;;4.77;4.47;;;;;;;19.90;100.00;96354.81;4997616;28;20197;-65
2023/07/01 08:35:25;;;;;;;4.53;4.13;;;;;;;20.63;100.00;96367.34;4995023;28;20691;-66
2023/07/01 08:37:52;;;;;;;4.97;4.60;;;;;;;20.79;100.00;96359.28;4991317;28;20726;-66
2023/07/01 08:40:20;;;;;;;4.20;3.83;;;;;;;20.60;97.96;96375.13;4993124;28;20224;-65
2023/07/01 08:42:49;;;;;;;3.77;3.50;;;;;;;20.69;98.59;96357.38;4997017;28;20591;-66
2023/07/01 08:45:17;;;;;;;4.80;4.00;;;;;;;20.36;91.55;96356.81;4994081;28;20372;-66
2023/07/01 08:47:44;;;;;;;4.07;3.73;;;;;;;20.67;87.61;96352.25;4996880;28;20228;-66
2023/07/01 08:50:15;;;;;;;7.50;4.03;;;;;;;20.14;87.84;96349.78;4998589;28;20233;-66
2023/07/01 08:52:47;;;;;;;3.97;2.87;;;;;;;19.85;90.19;96352.91;4993525;28;20293;-66
2023/07/01 08:55:15;;;;;;;4.07;3.70;;;;;;;19.61;94.24;96350.69;4986401;28;20209;-66
2023/07/01 08:57:43;;;;;;;25.50;4.30;;;;;;;19.42;98.22;96352.22;4996255;28;20297;-66
2023/07/01 09:00:12;;;;;;;4.03;3.73;;;;;;;19.51;100.00;96347.97;4993036;28;20225;-65
2023/07/01 09:02:40;;;;;;;3.60;3.37;;;;;;;19.78;96.13;96344.28;4998808;28;20882;-66
2023/07/01 09:05:09;;;;;;;7.17;4.87;;;;;;;19.96;84.73;96343.03;4998804;28;20201;-66
2023/07/01 09:07:36;;;;;;;3.70;3.50;;;;;;;20.19;85.15;96341.72;4994655;28;20205;-66
2023/07/01 09:10:07;;;;;;;3.50;3.20;;;;;;;20.34;75.28;96342.84;4992045;28;20283;-65
2023/07/01 09:12:34;;;;;;;3.63;3.27;;;;;;;20.31;76.59;96351.44;4996267;28;20198;-66
2023/07/01 09:15:04;;;;;;;3.40;3.20;;;;;;;20.49;72.86;96348.22;4999210;28;20345;-66
2023/07/01 09:17:33;;;;;;;5.57;3.53;;;;;;;20.78;72.35;96342.31;4987123;28;20247;-65
2023/07/01 09:20:03;;;;;;;3.47;3.23;;;;;;;20.84;72.86;96336.94;4998399;28;20225;-66
2023/07/01 09:22:31;;;;;;;4.10;3.70;;;;;;;20.98;71.24;96346.06;4993299;28;20248;-65
2023/07/01 09:24:59;;;;;;;3.80;3.50;;;;;;;21.17;67.20;96337.44;4996951;28;20204;-65
2023/07/01 09:27:40;;;;;;;4.10;3.80;;;;;;;21.25;70.93;96329.59;4992761;28;20299;-65
2023/07/01 09:30:24;;;;;;;4.60;4.30;;;;;;;20.99;67.92;96336.13;5000956;28;20263;-64
2023/07/01 09:32:52;;;;;;;4.23;3.40;;;;;;;21.53;73.51;96329.22;4999552;28;20232;-65
2023/07/01 09:35:19;;;;;;;4.70;3.90;;;;;;;21.54;66.55;96333.53;4991625;28;20209;-66
2023/07/01 09:38:02;;;;;;;3.67;3.37;;;;;;;20.87;64.89;96339.09;4991406;28;20209;-64
2023/07/01 09:40:29;;;;;;;3.47;3.27;;;;;;;20.84;68.85;96320.78;4993063;28;20246;-64
2023/07/01 09:42:58;;;;;;;3.30;3.10;;;;;;;21.46;70.11;96332.22;4990122;28;20319;-65
2023/07/01 09:45:26;;;;;;;4.57;3.47;;;;;;;21.57;59.42;96327.59;4997822;28;20205;-64
2023/07/01 09:47:54;;;;;;;3.03;2.83;;;;;;;22.02;56.10;96318.75;4999127;28;20204;-64
2023/07/01 09:50:23;;;;;;;4.17;3.40;;;;;;;22.27;57.95;96315.91;4993626;28;20229;-64
2023/07/01 09:52:53;;;;;;;3.63;2.97;;;;;;;22.04;60.34;96303.94;4988660;28;20620;-64
2023/07/01 09:55:21;;;;;;;6.17;3.37;;;;;;;21.68;59.51;96307.63;4991960;28;20670;-66
2023/07/01 09:57:48;;;;;;;4.03;3.63;;;;;;;21.73;60.51;96316.75;4994310;28;20296;-64
2023/07/01 10:00:17;;;;;;;3.10;2.90;;;;;;;21.96;59.86;96308.00;4995638;28;20299;-65
2023/07/01 10:02:46;;;;;;;4.13;2.80;;;;;;;22.18;58.72;96300.59;4992425;28;20247;-65
2023/07/01 10:05:14;;;;;;;3.23;3.03;;;;;;;21.92;56.46;96300.75;4996919;28;20312;-65
2023/07/01 10:07:43;;;;;;;2.90;2.70;;;;;;;21.29;58.46;96297.50;5002070;28;20202;-65
2023/07/01 10:10:16;;;;;;;2.80;2.70;;;;;;;21.67;62.45;96297.91;4992743;28;20252;-65
2023/07/01 10:12:44;;;;;;;5.10;2.97;;;;;;;22.00;55.91;96285.88;4989459;28;20748;-65
2023/07/01 10:15:13;;;;;;;2.50;2.40;;;;;;;21.99;56.24;96293.19;4994545;28;20205;-65
2023/07/01 10:17:49;;;;;;;2.97;2.77;;;;;;;21.48;56.41;96294.22;4992371;28;20791;-64
2023/07/01 10:20:28;;;;;;;3.33;2.83;;;;;;;21.40;59.57;96287.50;4990929;28;20291;-65
2023/07/01 10:22:56;;;;;;;3.37;3.17;;;;;;;21.48;58.73;96286.94;4997413;28;20205;-66
2023/07/01 10:25:30;;;;;;;4.17;2.90;;;;;;;21.27;57.65;96285.41;4990640;28;20205;-65
2023/07/01 10:28:15;;;;;;;2.60;2.40;;;;;;;21.53;55.74;96284.22;4988503;28;20295;-65
2023/07/01 10:31:14;;;;;;;3.40;3.10;;;;;;;21.74;58.37;96288.72;4997164;28;20231;-65
2023/07/01 10:33:53;;;;;;;2.90;2.50;;;;;;;21.78;59.09;96287.06;5000462;28;20260;-64
2023/07/01 10:36:21;;;;;;;3.67;2.20;;;;;;;21.93;56.05;96270.81;4995253;28;20201;-65
2023/07/01 10:38:49;;;;;;;3.97;2.30;;;;;;;22.04;55.74;96270.75;4989078;28;20263;-66
2023/07/01 10:41:53;;;;;;;2.50;2.40;;;;;;;22.41;52.59;96266.69;4989913;28;20229;-63
2023/07/01 10:44:25;;;;;;;3.30;3.10;;;;;;;22.21;54.91;96262.25;4994206;28;20385;-65
2023/07/01 10:47:14;;;;;;;2.20;2.10;;;;;;;22.15;51.97;96263.38;4999486;28;20205;-64
2023/07/01 10:50:02;;;;;;;2.30;2.20;;;;;;;21.80;53.70;96255.28;4993699;28;20213;-65
2023/07/01 10:52:30;;;;;;;2.33;2.03;;;;;;;21.82;52.02;96256.59;4986563;28;20255;-65
2023/07/01 10:54:59;;;;;;;2.33;2.20;;;;;;;21.61;53.72;96257.78;4993506;28;20393;-64
2023/07/01 10:57:27;;;;;;;2.50;2.40;;;;;;;22.23;55.25;96247.41;4993853;28;20292;-65
2023/07/01 11:00:28;;;;;;;5.87;4.73;;;;;;;22.32;53.70;96255.69;4996310;28;20267;-65
2023/07/01 11:02:56;;;;;;;3.00;2.53;;;;;;;22.58;52.06;96252.81;4993916;28;20708;-64
2023/07/01 11:05:28;;;;;;;2.93;2.43;;;;;;;22.71;51.66;96237.84;4988937;28;20228;-63
2023/07/01 11:08:06;;;;;;;2.87;2.67;;;;;;;22.63;49.98;96241.94;4988218;28;20230;-63
2023/07/01 11:10:34;;;;;;;2.77;2.57;;;;;;;22.66;50.25;96235.97;4991435;28;20240;-64
2023/07/01 11:13:02;;;;;;;2.50;2.30;;;;;;;22.70;49.07;96230.81;4988051;28;21256;-64
2023/07/01 11:15:30;;;;;;;2.93;2.73;;;;;;;22.94;49.15;96230.84;4991699;28;20227;-65
2023/07/01 11:17:58;;;;;;;4.53;4.13;;;;;;;23.42;49.57;96218.38;4997147;28;20251;-64
2023/07/01 11:20:27;;;;;;;2.23;2.13;;;;;;;23.66;50.30;96218.31;4995815;28;20229;-63
2023/07/01 11:22:55;;;;;;;2.40;2.30;;;;;;;24.09;51.82;96219.38;4998756;28;20204;-63
2023/07/01 11:25:22;;;;;;;2.23;2.13;;;;;;;24.22;48.67;96206.97;4989304;28;20321;-64
2023/07/01 11:27:50;;;;;;;2.40;2.30;;;;;;;24.08;48.08;96220.47;4991502;28;20197;-64